createdAt,value
2022-12-01T00:01:09.734Z,0.21
2022-12-01T00:03:37.176Z,0.16
2022-12-01T00:06:05.836Z,0.28
2022-12-01T00:08:33.460Z,0.07
2022-12-01T00:11:04.839Z,0.14
2022-12-01T00:13:32.336Z,0.19
2022-12-01T00:16:09.037Z,0.25
2022-12-01T00:18:35.950Z,0.28
2022-12-01T00:21:02.816Z,0.19
2022-12-01T00:23:29.709Z,0.24
2022-12-01T00:26:03.058Z,0.41
2022-12-01T00:28:29.965Z,0.30
2022-12-01T00:30:56.834Z,0.36
2022-12-01T00:33:23.814Z,0.34
2022-12-01T00:35:50.711Z,0.42
2022-12-01T00:38:17.621Z,0.38
2022-12-01T00:40:44.554Z,0.35
2022-12-01T00:43:11.483Z,0.28
2022-12-01T00:45:38.386Z,0.04
2022-12-01T00:48:05.369Z,0.33
2022-12-01T00:50:32.277Z,0.29
2022-12-01T00:52:59.245Z,0.29
2022-12-01T00:55:26.408Z,0.34
2022-12-01T00:57:53.335Z,0.29
2022-12-01T01:00:20.605Z,0.41
2022-12-01T01:02:47.677Z,0.36
2022-12-01T01:05:14.670Z,0.42
2022-12-01T01:07:41.605Z,0.42
2022-12-01T01:10:08.862Z,0.37
2022-12-01T01:12:35.844Z,0.40
2022-12-01T01:15:03.051Z,0.42
2022-12-01T01:17:29.969Z,0.28
2022-12-01T01:19:56.857Z,0.37
2022-12-01T01:22:23.744Z,0.35
2022-12-01T01:24:50.679Z,0.36
2022-12-01T01:27:17.876Z,0.37
2022-12-01T01:29:44.803Z,0.44
2022-12-01T01:32:11.717Z,0.45
2022-12-01T01:34:38.587Z,0.50
2022-12-01T01:37:05.457Z,0.54
2022-12-01T01:39:32.398Z,0.57
2022-12-01T01:41:59.270Z,0.55
2022-12-01T01:44:49.629Z,0.50
2022-12-01T01:47:33.475Z,0.44
2022-12-01T01:50:06.712Z,0.45
2022-12-01T01:52:42.550Z,0.49
2022-12-01T01:55:09.895Z,0.54
2022-12-01T01:57:38.050Z,0.50
2022-12-01T02:00:10.120Z,0.57
2022-12-01T02:02:45.410Z,0.61
2022-12-01T02:05:18.143Z,0.55
2022-12-01T02:08:02.839Z,0.46
2022-12-01T02:10:56.775Z,0.43
2022-12-01T02:13:55.923Z,0.40
2022-12-01T02:17:03.336Z,0.39
2022-12-01T02:20:20.334Z,0.49
2022-12-01T02:23:19.658Z,0.53
2022-12-01T02:26:41.235Z,0.57
2022-12-01T02:29:35.821Z,0.47
2022-12-01T02:32:30.324Z,0.45
2022-12-01T02:35:03.926Z,0.52
2022-12-01T02:37:59.899Z,0.44
2022-12-01T02:40:43.693Z,0.52
2022-12-01T02:43:27.644Z,0.41
2022-12-01T02:46:02.637Z,0.38
2022-12-01T02:48:43.234Z,0.30
2022-12-01T02:51:16.553Z,0.36
2022-12-01T02:53:43.855Z,0.33
2022-12-01T02:56:13.437Z,0.37
2022-12-01T02:58:40.573Z,0.33
2022-12-01T03:01:24.833Z,0.37
2022-12-01T03:03:59.129Z,0.36
2022-12-01T03:06:32.220Z,0.44
2022-12-01T03:09:17.203Z,0.39
2022-12-01T03:12:08.285Z,0.42
2022-12-01T03:15:25.468Z,0.48
2022-12-01T03:17:55.456Z,0.43
2022-12-01T03:20:37.677Z,0.39
2022-12-01T03:23:18.327Z,0.32
2022-12-01T03:25:48.925Z,0.38
2022-12-01T03:28:21.872Z,0.41
2022-12-01T03:30:53.039Z,0.40
2022-12-01T03:33:34.504Z,0.46
2022-12-01T03:36:07.372Z,0.39
2022-12-01T03:38:36.554Z,0.34
2022-12-01T03:41:15.097Z,0.38
2022-12-01T03:43:49.380Z,0.34
2022-12-01T03:46:25.669Z,0.28
2022-12-01T03:48:55.443Z,0.33
2022-12-01T03:51:48.494Z,0.33
2022-12-01T03:54:55.628Z,0.34
2022-12-01T03:57:58.622Z,0.35
2022-12-01T04:00:25.589Z,0.30
2022-12-01T04:02:57.671Z,0.36
2022-12-01T04:05:26.319Z,0.43
2022-12-01T04:07:54.133Z,0.48
2022-12-01T04:10:21.239Z,0.45
2022-12-01T04:12:48.309Z,0.49
2022-12-01T04:15:15.565Z,0.46
2022-12-01T04:17:44.499Z,0.44
2022-12-01T04:20:14.883Z,0.46
2022-12-01T04:22:42.144Z,0.47
2022-12-01T04:25:10.281Z,0.44
2022-12-01T04:27:38.000Z,0.45
2022-12-01T04:30:06.698Z,0.44
2022-12-01T04:32:40.856Z,0.44
2022-12-01T04:35:09.891Z,0.50
2022-12-01T04:37:37.524Z,0.49
2022-12-01T04:40:06.032Z,0.46
2022-12-01T04:42:33.115Z,0.49
2022-12-01T04:45:00.039Z,0.48
2022-12-01T04:47:26.939Z,0.44
2022-12-01T04:49:54.669Z,0.47
2022-12-01T04:52:21.588Z,0.52
2022-12-01T04:54:48.485Z,0.44
2022-12-01T04:57:17.075Z,0.49
2022-12-01T04:59:43.976Z,0.50
2022-12-01T05:02:10.974Z,0.48
2022-12-01T05:04:41.569Z,0.46
2022-12-01T05:07:08.804Z,0.60
2022-12-01T05:09:35.869Z,0.52
2022-12-01T05:12:02.888Z,0.57
2022-12-01T05:14:29.812Z,0.51
2022-12-01T05:16:58.350Z,0.57
2022-12-01T05:19:43.900Z,0.65
2022-12-01T05:22:10.764Z,0.54
2022-12-01T05:24:37.683Z,0.27
2022-12-01T05:27:04.708Z,0.48
2022-12-01T05:29:33.242Z,0.51
2022-12-01T05:32:00.347Z,0.55
2022-12-01T05:34:27.405Z,0.49
2022-12-01T05:36:54.352Z,0.51
2022-12-01T05:39:21.259Z,0.52
2022-12-01T05:41:48.136Z,0.59
2022-12-01T05:44:15.111Z,0.62
2022-12-01T05:46:42.002Z,0.63
2022-12-01T05:49:08.882Z,0.52
2022-12-01T05:51:35.802Z,0.50
2022-12-01T05:54:03.014Z,0.57
2022-12-01T05:56:29.948Z,0.57
2022-12-01T05:58:56.929Z,0.61
2022-12-01T06:01:23.987Z,0.63
2022-12-01T06:03:50.921Z,0.63
2022-12-01T06:06:17.894Z,0.62
2022-12-01T06:08:44.809Z,0.65
2022-12-01T06:11:11.832Z,0.64
2022-12-01T06:13:38.950Z,0.63
2022-12-01T06:16:06.824Z,0.64
2022-12-01T06:18:36.950Z,0.63
2022-12-01T06:21:05.966Z,0.72
2022-12-01T06:23:33.528Z,0.68
2022-12-01T06:26:00.437Z,0.65
2022-12-01T06:28:27.358Z,0.63
2022-12-01T06:30:59.326Z,0.63
2022-12-01T06:33:29.603Z,0.60
2022-12-01T06:36:01.530Z,0.67
2022-12-01T06:38:31.814Z,0.59
2022-12-01T06:40:58.695Z,0.60
2022-12-01T06:43:25.601Z,0.67
2022-12-01T06:45:57.820Z,0.56
2022-12-01T06:48:28.026Z,0.54
2022-12-01T06:50:58.519Z,0.53
2022-12-01T06:53:27.558Z,0.52
2022-12-01T06:55:55.382Z,0.59
2022-12-01T06:58:22.757Z,0.65
2022-12-01T07:00:52.223Z,0.64
2022-12-01T07:03:19.818Z,0.57
2022-12-01T07:06:01.266Z,0.64
2022-12-01T07:08:30.185Z,0.60
2022-12-01T07:11:08.364Z,0.55
2022-12-01T07:13:35.939Z,0.48
2022-12-01T07:16:03.584Z,0.51
2022-12-01T07:18:31.668Z,0.61
2022-12-01T07:21:03.105Z,0.56
2022-12-01T07:23:30.433Z,0.47
2022-12-01T07:26:05.013Z,0.50
2022-12-01T07:28:32.216Z,0.44
2022-12-01T07:31:04.196Z,0.45
2022-12-01T07:33:31.520Z,0.42
2022-12-01T07:35:58.782Z,0.21
2022-12-01T07:38:27.530Z,0.48
2022-12-01T07:40:54.498Z,0.47
2022-12-01T07:43:21.462Z,0.44
2022-12-01T07:45:48.377Z,0.40
2022-12-01T07:48:15.321Z,0.42
2022-12-01T07:50:42.198Z,0.39
2022-12-01T07:53:09.100Z,0.41
2022-12-01T07:55:37.281Z,0.42
2022-12-01T07:58:04.242Z,0.39
2022-12-01T08:00:31.138Z,0.37
2022-12-01T08:02:58.129Z,0.38
2022-12-01T08:05:25.035Z,0.37
2022-12-01T08:07:54.183Z,0.31
2022-12-01T08:10:21.042Z,0.43
2022-12-01T08:12:48.282Z,0.36
2022-12-01T08:15:15.239Z,0.34
2022-12-01T08:17:42.142Z,0.37
2022-12-01T08:20:09.290Z,0.38
2022-12-01T08:22:36.175Z,0.35
2022-12-01T08:25:03.120Z,0.40
2022-12-01T08:27:30.019Z,0.38
2022-12-01T08:29:56.914Z,0.39
2022-12-01T08:32:23.839Z,0.37
2022-12-01T08:34:53.587Z,0.43
2022-12-01T08:37:20.710Z,0.41
2022-12-01T08:39:47.866Z,0.43
2022-12-01T08:42:14.955Z,0.50
2022-12-01T08:44:41.856Z,0.31
2022-12-01T08:47:09.549Z,0.52
2022-12-01T08:49:37.045Z,0.53
2022-12-01T08:52:04.168Z,0.54
2022-12-01T08:54:31.107Z,0.52
2022-12-01T08:56:58.022Z,0.52
2022-12-01T08:59:24.961Z,0.58
2022-12-01T09:01:54.604Z,0.59
2022-12-01T09:04:26.160Z,0.56
2022-12-01T09:06:55.742Z,0.61
2022-12-01T09:09:25.692Z,0.70
2022-12-01T09:11:52.941Z,0.68
2022-12-01T09:14:21.410Z,0.60
2022-12-01T09:16:52.628Z,0.54
2022-12-01T09:19:24.713Z,0.63
2022-12-01T09:21:52.934Z,0.61
2022-12-01T09:24:19.876Z,0.67
2022-12-01T09:26:46.855Z,0.57
2022-12-01T09:29:15.742Z,0.57
2022-12-01T09:31:43.371Z,0.47
2022-12-01T09:34:20.340Z,0.65
2022-12-01T09:36:48.025Z,0.62
2022-12-01T09:39:19.019Z,0.63
2022-12-01T09:41:55.099Z,0.68
2022-12-01T09:44:41.087Z,0.65
2022-12-01T09:47:19.404Z,0.60
2022-12-01T09:49:46.443Z,0.63
2022-12-01T09:52:16.392Z,0.61
2022-12-01T09:54:43.326Z,0.62
2022-12-01T09:57:31.208Z,0.56
2022-12-01T10:00:00.158Z,0.62
2022-12-01T10:02:48.892Z,0.61
2022-12-01T10:05:21.307Z,0.58
2022-12-01T10:08:02.440Z,0.56
2022-12-01T10:10:36.721Z,0.55
2022-12-01T10:13:17.136Z,0.54
2022-12-01T10:15:52.226Z,0.55
2022-12-01T10:18:28.121Z,0.53
2022-12-01T10:21:05.628Z,0.50
2022-12-01T10:23:47.811Z,0.61
2022-12-01T10:26:26.433Z,0.55
2022-12-01T10:29:07.880Z,0.58
2022-12-01T10:31:45.700Z,0.59
2022-12-01T10:34:29.749Z,0.65
2022-12-01T10:36:58.267Z,0.67
2022-12-01T10:39:37.033Z,0.74
2022-12-01T10:42:34.835Z,0.66
2022-12-01T10:45:05.482Z,0.58
2022-12-01T10:47:32.945Z,0.61
2022-12-01T10:49:59.871Z,0.59
2022-12-01T10:52:38.586Z,0.58
2022-12-01T10:55:26.753Z,0.58
2022-12-01T10:58:00.845Z,0.55
2022-12-01T11:03:31.646Z,0.54
2022-12-01T11:06:01.665Z,0.53
2022-12-01T11:08:47.127Z,0.41
2022-12-01T11:11:36.464Z,0.49
2022-12-01T11:14:07.642Z,0.51
2022-12-01T11:16:43.781Z,0.58
2022-12-01T11:19:23.582Z,0.63
2022-12-01T11:21:56.448Z,0.58
2022-12-01T11:24:40.053Z,0.62
2022-12-01T11:27:19.364Z,0.54
2022-12-01T11:29:52.365Z,0.46
2022-12-01T11:32:21.553Z,0.49
2022-12-01T11:35:17.067Z,0.47
2022-12-01T11:38:20.986Z,0.53
2022-12-01T11:40:57.221Z,0.45
2022-12-01T11:43:30.738Z,0.49
2022-12-01T11:46:01.884Z,0.50
2022-12-01T11:48:31.622Z,0.52
2022-12-01T11:51:10.105Z,0.59
2022-12-01T11:53:40.111Z,0.29
2022-12-01T11:56:25.273Z,0.53
2022-12-01T11:58:57.476Z,0.50
2022-12-01T12:01:58.581Z,0.57
2022-12-01T12:04:55.984Z,0.54
2022-12-01T12:07:41.518Z,0.47
2022-12-01T12:10:35.437Z,0.42
2022-12-01T12:13:20.664Z,0.45
2022-12-01T12:16:19.842Z,0.44
2022-12-01T12:19:12.336Z,0.51
2022-12-01T12:22:05.253Z,0.49
2022-12-01T12:24:44.144Z,0.42
2022-12-01T12:27:13.780Z,0.44
2022-12-01T12:30:01.689Z,0.46
2022-12-01T12:32:47.144Z,0.48
2022-12-01T12:35:26.127Z,0.55
2022-12-01T12:38:11.338Z,0.51
2022-12-01T12:40:56.527Z,0.48
2022-12-01T12:43:40.129Z,0.51
2022-12-01T12:46:29.335Z,0.45
2022-12-01T12:49:26.265Z,0.51
2022-12-01T12:52:08.154Z,0.36
2022-12-01T12:54:57.665Z,0.53
2022-12-01T12:57:35.632Z,0.46
2022-12-01T13:00:08.901Z,0.41
2022-12-01T13:02:44.640Z,0.37
2022-12-01T13:05:17.630Z,0.38
2022-12-01T13:07:58.908Z,0.37
2022-12-01T13:11:10.612Z,0.33
2022-12-01T13:13:45.552Z,0.35
2022-12-01T13:16:17.619Z,0.34
2022-12-01T13:19:16.632Z,0.29
2022-12-01T13:21:47.150Z,0.33
2022-12-01T13:24:23.333Z,0.31
2022-12-01T13:26:59.446Z,0.16
2022-12-01T13:29:29.478Z,0.24
2022-12-01T13:31:56.520Z,0.36
2022-12-01T13:34:32.146Z,0.37
2022-12-01T13:36:59.358Z,0.38
2022-12-01T13:39:29.142Z,0.35
2022-12-01T13:42:19.347Z,0.37
2022-12-01T13:45:18.892Z,0.38
2022-12-01T13:47:54.603Z,0.36
2022-12-01T13:50:45.143Z,0.37
2022-12-01T13:53:23.164Z,0.36
2022-12-01T13:55:57.751Z,0.37
2022-12-01T13:58:41.265Z,0.37
2022-12-01T14:01:20.291Z,0.35
2022-12-01T14:04:03.848Z,0.35
2022-12-01T14:06:39.209Z,0.32
2022-12-01T14:09:21.179Z,0.31
2022-12-01T14:12:17.663Z,0.31
2022-12-01T14:15:20.837Z,0.29
2022-12-01T14:17:57.907Z,0.31
2022-12-01T14:20:25.152Z,0.31
2022-12-01T14:23:16.873Z,0.29
2022-12-01T14:26:10.112Z,0.24
2022-12-01T14:28:55.366Z,0.19
2022-12-01T14:31:23.915Z,0.17
2022-12-01T14:33:59.912Z,0.17
2022-12-01T14:36:32.713Z,0.19
2022-12-01T14:39:02.291Z,0.21
2022-12-01T14:41:33.955Z,0.17
2022-12-01T14:44:14.554Z,0.38
2022-12-01T14:46:49.279Z,0.38
2022-12-01T14:49:26.298Z,0.34
2022-12-01T14:52:05.157Z,0.34
2022-12-01T14:54:45.568Z,0.07
2022-12-01T14:57:17.262Z,0.28
2022-12-01T14:59:45.221Z,0.41
2022-12-01T15:02:12.917Z,0.39
2022-12-01T15:05:07.939Z,0.37
2022-12-01T15:07:40.355Z,0.33
2022-12-01T15:10:19.394Z,0.36
2022-12-01T15:12:47.465Z,0.32
2022-12-01T15:15:26.003Z,0.23
2022-12-01T15:17:55.705Z,0.32
2022-12-01T15:20:34.932Z,0.36
2022-12-01T15:23:08.939Z,0.37
2022-12-01T15:25:37.317Z,0.37
2022-12-01T15:28:16.843Z,0.34
2022-12-01T15:30:48.379Z,0.35
2022-12-01T15:33:28.421Z,0.10
2022-12-01T15:35:59.288Z,0.32
2022-12-01T15:38:30.127Z,0.29
2022-12-01T15:41:27.780Z,0.23
2022-12-01T15:44:05.711Z,0.19
2022-12-01T15:46:37.422Z,0.02
2022-12-01T15:49:48.635Z,0.19
2022-12-01T15:52:16.478Z,0.19
2022-12-01T15:54:48.917Z,0.13
2022-12-01T15:57:21.939Z,0.18
2022-12-01T15:59:57.145Z,0.14
2022-12-01T16:02:30.509Z,0.12
2022-12-01T16:05:27.779Z,0.29
2022-12-01T16:10:42.443Z,0.18
2022-12-01T16:13:35.711Z,0.14
2022-12-01T16:16:23.801Z,0.11
2022-12-01T16:18:57.184Z,0.09
2022-12-01T16:21:25.352Z,0.10
2022-12-01T16:24:04.945Z,0.16
2022-12-01T16:26:33.786Z,0.12
2022-12-01T16:29:00.880Z,0.02
2022-12-01T16:31:29.005Z,0.09
2022-12-01T16:34:18.467Z,0.12
2022-12-01T16:36:51.068Z,0.11
2022-12-01T16:39:18.398Z,-0.08
2022-12-01T16:41:46.985Z,0.11
2022-12-01T16:44:30.607Z,0.12
2022-12-01T16:46:57.518Z,0.13
2022-12-01T16:49:24.472Z,0.17
2022-12-01T16:51:56.360Z,0.17
2022-12-01T16:54:23.991Z,0.15
2022-12-01T16:56:51.586Z,0.24
2022-12-01T16:59:18.615Z,0.14
2022-12-01T17:01:45.611Z,0.16
2022-12-01T17:04:12.628Z,0.22
2022-12-01T17:06:39.699Z,0.18
2022-12-01T17:09:06.646Z,0.13
2022-12-01T17:11:33.688Z,0.12
2022-12-01T17:14:00.598Z,0.08
2022-12-01T17:16:27.870Z,0.08
2022-12-01T17:18:54.864Z,-0.02
2022-12-01T17:21:21.762Z,0.01
2022-12-01T17:23:48.772Z,-0.04
2022-12-01T17:26:18.067Z,0.02
2022-12-01T17:28:45.091Z,0.04
2022-12-01T17:31:12.360Z,0.06
2022-12-01T17:33:39.933Z,0.06
2022-12-01T17:36:10.680Z,0.00
2022-12-01T17:38:39.242Z,0.02
2022-12-01T17:41:11.818Z,0.08
2022-12-01T17:43:40.090Z,0.03
2022-12-01T17:46:08.715Z,0.03
2022-12-01T17:48:53.452Z,0.07
2022-12-01T17:51:20.417Z,0.00
2022-12-01T17:53:47.381Z,-0.11
2022-12-01T17:56:16.394Z,-0.02
2022-12-01T17:58:43.644Z,-0.06
2022-12-01T18:01:16.332Z,-0.07
2022-12-01T18:03:44.164Z,-0.13
2022-12-01T18:06:11.711Z,-0.08
2022-12-01T18:08:39.914Z,-0.16
2022-12-01T18:11:10.203Z,-0.12
2022-12-01T18:13:38.538Z,-0.04
2022-12-01T18:16:10.156Z,-0.01
2022-12-01T18:18:38.279Z,-0.06
2022-12-01T18:21:10.674Z,-0.07
2022-12-01T18:23:38.113Z,-0.11
2022-12-01T18:26:16.065Z,-0.12
2022-12-01T18:28:44.347Z,-0.05
2022-12-01T18:31:14.883Z,-0.12
2022-12-01T18:33:44.151Z,-0.13
2022-12-01T18:36:20.426Z,-0.11
2022-12-01T18:38:47.693Z,-0.12
2022-12-01T18:41:15.775Z,-0.38
2022-12-01T18:43:43.183Z,-0.13
2022-12-01T18:46:11.460Z,-0.15
2022-12-01T18:48:38.707Z,-0.23
2022-12-01T18:51:07.653Z,-0.07
2022-12-01T18:53:35.191Z,-0.11
2022-12-01T18:56:04.172Z,-0.16
2022-12-01T18:58:32.090Z,-0.23
2022-12-01T19:01:00.761Z,-0.28
2022-12-01T19:03:32.071Z,-0.28
2022-12-01T19:05:59.722Z,-0.35
2022-12-01T19:08:27.309Z,-0.40
2022-12-01T19:11:02.492Z,-0.34
2022-12-01T19:13:31.524Z,-0.26
2022-12-01T19:16:00.020Z,-0.21
2022-12-01T19:18:29.600Z,-0.18
2022-12-01T19:21:01.631Z,-0.17
2022-12-01T19:23:30.400Z,-0.28
2022-12-01T19:26:00.009Z,-0.21
2022-12-01T19:28:30.063Z,-0.24
2022-12-01T19:30:59.522Z,-0.27
2022-12-01T19:33:30.274Z,-0.28
2022-12-01T19:35:59.346Z,-0.12
2022-12-01T19:38:28.099Z,-0.10
2022-12-01T19:40:57.510Z,-0.15
2022-12-01T19:43:26.515Z,-0.20
2022-12-01T19:45:55.701Z,-0.11
2022-12-01T19:48:24.883Z,0.02
2022-12-01T19:50:53.918Z,-0.01
2022-12-01T19:53:22.943Z,0.06
2022-12-01T19:55:51.497Z,0.01
2022-12-01T19:58:20.610Z,-0.02
2022-12-01T20:00:49.666Z,0.05
2022-12-01T20:03:18.312Z,-0.07
2022-12-01T20:05:48.005Z,0.05
2022-12-01T20:08:16.272Z,-0.08
2022-12-01T20:10:50.122Z,0.03
2022-12-01T20:13:18.846Z,-0.07
2022-12-01T20:15:47.459Z,-0.02
2022-12-01T20:18:16.973Z,-0.14
2022-12-01T20:20:46.351Z,-0.11
2022-12-01T20:23:15.563Z,-0.21
2022-12-01T20:25:44.778Z,-0.09
2022-12-01T20:28:13.701Z,-0.22
2022-12-01T20:30:43.102Z,-0.20
2022-12-01T20:33:11.775Z,-0.21
2022-12-01T20:35:40.634Z,-0.22
2022-12-01T20:38:09.576Z,-0.23
2022-12-01T20:40:47.100Z,-0.34
2022-12-01T20:43:16.765Z,-0.41
2022-12-01T20:45:46.201Z,-0.37
2022-12-01T20:48:15.032Z,-0.41
2022-12-01T20:50:45.065Z,-0.39
2022-12-01T20:53:14.007Z,-0.41
2022-12-01T20:55:43.140Z,-0.35
2022-12-01T20:58:15.910Z,-0.31
2022-12-01T21:00:46.204Z,-0.29
2022-12-01T21:03:14.464Z,-0.35
2022-12-01T21:05:43.564Z,-0.27
2022-12-01T21:08:14.102Z,-0.30
2022-12-01T21:10:45.171Z,-0.27
2022-12-01T21:13:44.967Z,-0.53
2022-12-01T21:16:28.520Z,-0.39
2022-12-01T21:19:06.438Z,-0.36
2022-12-01T21:21:39.414Z,-0.47
2022-12-01T21:24:06.274Z,-0.44
2022-12-01T21:26:33.306Z,-0.35
2022-12-01T21:29:01.243Z,-0.34
2022-12-01T21:31:28.420Z,-0.35
2022-12-01T21:33:56.135Z,-0.31
2022-12-01T21:36:28.282Z,-0.36
2022-12-01T21:39:03.820Z,-0.29
2022-12-01T21:41:31.278Z,-0.26
2022-12-01T21:44:08.036Z,-0.27
2022-12-01T21:46:35.442Z,-0.24
2022-12-01T21:49:02.882Z,-0.26
2022-12-01T21:51:31.066Z,-0.29
2022-12-01T21:53:58.774Z,-0.27
2022-12-01T21:56:28.427Z,-0.38
2022-12-01T21:58:59.659Z,-0.48
2022-12-01T22:01:29.208Z,-0.38
2022-12-01T22:04:02.016Z,-0.43
2022-12-01T22:06:38.208Z,-0.44
2022-12-01T22:09:33.312Z,-0.42
2022-12-01T22:12:13.429Z,-0.37
2022-12-01T22:14:40.341Z,-0.49
2022-12-01T22:17:07.182Z,-0.37
2022-12-01T22:19:38.070Z,-0.40
2022-12-01T22:22:11.040Z,-0.41
2022-12-01T22:24:42.635Z,-0.44
2022-12-01T22:27:19.390Z,-0.49
2022-12-01T22:29:49.001Z,-0.44
2022-12-01T22:32:15.852Z,-0.47
2022-12-01T22:34:49.673Z,-0.53
2022-12-01T22:37:31.253Z,-0.52
2022-12-01T22:39:58.144Z,-0.53
2022-12-01T22:42:33.331Z,-0.48
2022-12-01T22:45:14.964Z,-0.65
2022-12-01T22:47:41.850Z,-0.35
2022-12-01T22:50:26.816Z,-0.38
2022-12-01T22:52:58.975Z,-0.40
2022-12-01T22:55:25.905Z,-0.50
2022-12-01T22:57:53.054Z,-0.50
2022-12-01T23:00:23.239Z,-0.56
2022-12-01T23:02:53.377Z,-0.52
2022-12-01T23:05:29.380Z,-0.50
2022-12-01T23:07:57.713Z,-0.54
2022-12-01T23:10:30.481Z,-0.52
2022-12-01T23:13:09.058Z,-0.59
2022-12-01T23:15:39.605Z,-0.72
2022-12-01T23:18:18.811Z,-0.62
2022-12-01T23:20:54.638Z,-0.67
2022-12-01T23:23:27.302Z,-0.72
2022-12-01T23:25:54.886Z,-0.59
2022-12-01T23:28:22.578Z,-0.71
2022-12-01T23:30:53.093Z,-0.57
2022-12-01T23:33:22.622Z,-0.57
2022-12-01T23:36:15.265Z,-0.60
2022-12-01T23:38:48.213Z,-0.60
2022-12-01T23:41:36.009Z,-0.56
2022-12-01T23:44:14.951Z,-0.57
2022-12-01T23:46:42.117Z,-0.61
2022-12-01T23:49:16.011Z,-0.62
2022-12-01T23:52:02.966Z,-0.71
2022-12-01T23:54:33.511Z,-0.74
2022-12-01T23:57:10.984Z,-0.64
2022-12-01T23:59:38.455Z,-0.75
